Aérodrome :
LOGIN :

S'inscrire | Disclaimer

   EN    FR    IT 

 










Légende :    VFR   VFR Marginal   IFR   IFR Intensif   IFR Très Intensif
Visi : 
Plafond : 
>= 8 km
>= 3000ft
5 à 8 km
1000 à 3000 ft
1500m à 5 km
500 à 1000 ft
800 à 1500m
200 à 500 ft
< 800m
< 200 ft
Symboles :   Orages  Brouillard  Fortes neiges  Fortes précipitations  Vent > 20 kt
SIGMETs :   Divers  Orages  Givrage  Turbulence  Onde Orograph.  Cendres Volcan.







- Altitude de l'aérodrome : 57 ft
- Code IATA : KRS


ENCN - Kristiansand Kjevik

DERNIER METAR :
  • 241520Z 25009KT 9999 -SHRA FEW009 SCT033 SCT042 05/03 Q1013

METARs EXPIRÉS :
  • 241450Z 26012KT 230V300 9999 -SHRA FEW010CB SCT029 05/03 Q1013
  • 241420Z 26010KT 9999 VCSH FEW018CB SCT031 SCT043 06/03 Q1014
  • 241350Z 27009KT 9999 -SHRA SCT020CB BKN031 06/03 Q1014
  • 241320Z 27011KT 9999 -SHRAGS FEW017 SCT024CB BKN033 05/02 Q1015
  • 241250Z 28010KT 250V330 9999 -SHRA SCT020CB BKN030 06/03 Q1016

TAF TAF ENCN
Valide du 24 à 15h jusqu'au 24 à 23h UTC


241400Z 2415/2423 26012KT 9999 -SHRA SCT018TCU SCT030
TEMPO 2415/2420 26015G25KT 4000 SHRAGS BKN012 SCT015CB
Pas de NOTAMs connus pour ce terrain.



MET'MAP, la Météo Aéronautique d'un coup d'oeil ! - Copyright ORBIFLY Décembre 2007 - Disclaimer

ORBIFLY MET'MAP TEAM :

Programmation & Développement : Alexandra Zaïnal
Conception & Développement : Baudouin d'Aumeries
Co-Programmation & Développement : Marc-Olivier Méhu
Soutien technique & logistique : Manuel Goepfert

Contact : metmap@orbifly.com




SOURCES & CREDITS :

   NOAA